Time;durP1;ratioP1;P1;durP2;ratioP2;P2;SDS_P1;SDS_P2;PMS_P1;PMS_P2;Temp;Humidity;BMP_temperature;BMP_pressure;BME280_temperature;BME280_humidity;BME280_pressure;Samples;Min_cycle;Max_cycle;Signal;HPM_P1;HPM_P2
2022/08/21 00:02:04;;;;;;;29.60;12.50;;;;;;;21.61;53.85;98411.08;105947;1276;95317;-67
2022/08/21 00:04:31;;;;;;;25.60;13.40;;;;;;;21.57;53.99;98417.66;105973;1276;111449;-66
2022/08/21 00:06:59;;;;;;;27.70;14.10;;;;;;;21.54;53.97;98412.36;106029;1276;95308;-67
2022/08/21 00:09:28;;;;;;;25.40;13.60;;;;;;;21.51;54.14;98415.83;106077;1276;108728;-67
2022/08/21 00:11:55;;;;;;;23.70;14.00;;;;;;;21.47;54.07;98412.31;105881;1276;97969;-68
2022/08/21 00:14:24;;;;;;;25.40;13.30;;;;;;;21.43;54.34;98408.99;105942;1276;97908;-67
2022/08/21 00:16:58;;;;;;;29.10;15.40;;;;;;;21.40;54.34;98407.40;105769;1276;111244;-66
2022/08/21 00:19:28;;;;;;;26.60;13.70;;;;;;;21.37;54.47;98400.27;105897;1276;98527;-67
2022/08/21 00:21:57;;;;;;;26.20;14.10;;;;;;;21.33;54.40;98398.83;105862;1276;108424;-67
2022/08/21 00:24:26;;;;;;;29.60;14.20;;;;;;;21.29;54.49;98398.47;105929;1276;97958;-67
2022/08/21 00:26:55;;;;;;;24.00;13.30;;;;;;;21.25;54.73;98396.69;106103;1276;96295;-66
2022/08/21 00:29:23;;;;;;;24.20;13.60;;;;;;;21.22;54.67;98398.08;105964;1276;112033;-68
2022/08/21 00:31:53;;;;;;;25.40;15.00;;;;;;;21.17;54.72;98394.48;105889;1276;97992;-65
2022/08/21 00:34:21;;;;;;;25.40;14.50;;;;;;;21.13;54.92;98389.28;105844;1276;107791;-67
2022/08/21 00:36:50;;;;;;;24.70;14.00;;;;;;;21.08;54.87;98385.70;105929;1276;98091;-66
2022/08/21 00:39:18;;;;;;;24.30;14.40;;;;;;;21.05;54.96;98383.80;106074;1276;97804;-66
2022/08/21 00:41:46;;;;;;;27.00;14.50;;;;;;;21.01;55.00;98384.11;105892;1276;111046;-67
2022/08/21 00:44:17;;;;;;;24.90;14.30;;;;;;;20.96;55.16;98376.73;106005;1276;95322;-68
2022/08/21 00:46:45;;;;;;;26.30;14.30;;;;;;;20.94;55.18;98373.46;105931;1276;108376;-68
2022/08/21 00:49:14;;;;;;;26.10;13.10;;;;;;;20.92;55.21;98371.40;105983;1276;96949;-67
2022/08/21 00:51:52;;;;;;;28.70;13.80;;;;;;;20.90;55.51;98369.89;105959;1276;99014;-67
2022/08/21 00:54:24;;;;;;;28.50;13.90;;;;;;;20.86;55.45;98364.78;105934;1276;111468;-68
2022/08/21 00:56:55;;;;;;;;;;;;;;;20.81;55.64;98356.92;105825;1276;98072;-67
2022/08/21 00:59:29;;;;;;;24.50;12.90;;;;;;;20.72;55.80;98354.08;105813;1276;108456;-66
2022/08/21 01:01:58;;;;;;;25.20;13.30;;;;;;;20.67;55.70;98354.46;105776;1276;95393;-67
2022/08/21 01:04:27;;;;;;;28.30;15.00;;;;;;;20.63;55.82;98357.08;105806;1276;97977;-67
2022/08/21 01:06:55;;;;;;;24.90;13.10;;;;;;;20.62;55.90;98358.59;105823;1276;112009;-65
2022/08/21 01:09:24;;;;;;;22.40;12.70;;;;;;;20.58;56.01;98359.20;106023;1276;98026;-66
2022/08/21 01:11:52;;;;;;;26.70;14.90;;;;;;;20.53;55.96;98360.66;105956;1276;108657;-67
2022/08/21 01:14:20;;;;;;;27.20;13.80;;;;;;;20.51;56.13;98363.70;105972;1276;97944;-65
2022/08/21 01:16:52;;;;;;;29.10;14.10;;;;;;;20.48;56.13;98361.39;106014;1276;97881;-66
2022/08/21 01:19:23;;;;;;;25.10;13.30;;;;;;;20.46;56.26;98363.65;105893;1276;112017;-66
2022/08/21 01:21:53;;;;;;;24.30;13.00;;;;;;;20.43;56.33;98360.71;105965;1277;95383;-68
2022/08/21 01:24:22;;;;;;;25.70;13.10;;;;;;;20.41;56.41;98362.42;105936;1276;107898;-70
2022/08/21 01:26:51;;;;;;;25.20;13.10;;;;;;;20.38;56.46;98360.83;106009;1276;98041;-67
2022/08/21 01:29:42;;;;;;;26.40;13.20;;;;;;;20.34;56.60;98361.43;106048;1276;97890;-67
2022/08/21 01:32:14;;;;;;;23.70;12.60;;;;;;;20.30;56.58;98365.71;105964;1276;112062;-67
2022/08/21 01:34:46;;;;;;;25.30;13.50;;;;;;;20.28;56.70;98364.06;105884;1276;97986;-66
2022/08/21 01:37:16;;;;;;;21.10;12.40;;;;;;;20.25;56.78;98363.83;105901;1276;108352;-67
2022/08/21 01:39:45;;;;;;;25.40;13.60;;;;;;;20.21;56.77;98362.11;105902;1276;97939;-67
2022/08/21 01:42:14;;;;;;;25.10;13.70;;;;;;;20.18;56.86;98363.62;105935;1276;97969;-66
2022/08/21 01:44:42;;;;;;;25.60;13.60;;;;;;;20.15;56.93;98364.77;105978;1276;111411;-67
2022/08/21 01:47:15;;;;;;;24.60;13.90;;;;;;;20.11;57.09;98356.73;105955;1276;97883;-67
2022/08/21 01:49:45;;;;;;;23.30;13.60;;;;;;;20.08;57.13;98356.58;105923;1276;108460;-65
2022/08/21 01:52:13;;;;;;;25.90;13.20;;;;;;;20.04;57.09;98353.45;106016;1276;97978;-67
2022/08/21 01:54:42;;;;;;;26.30;13.90;;;;;;;20.01;57.22;98354.88;105922;1276;97896;-65
2022/08/21 01:57:13;;;;;;;24.50;13.40;;;;;;;19.98;57.29;98353.51;105965;1276;111682;-67
2022/08/21 01:59:42;;;;;;;22.10;13.10;;;;;;;19.94;57.37;98352.32;105929;1276;97970;-67
2022/08/21 02:02:09;;;;;;;24.10;14.00;;;;;;;19.93;57.44;98349.23;105895;1276;108189;-67
2022/08/21 02:04:39;;;;;;;27.60;13.50;;;;;;;19.90;57.45;98351.94;105964;1277;99369;-67
2022/08/21 02:07:07;;;;;;;26.10;14.20;;;;;;;19.87;57.59;98354.48;105992;1276;95272;-67
2022/08/21 02:09:37;;;;;;;24.30;13.20;;;;;;;19.84;57.68;98356.40;105990;1276;111289;-66
2022/08/21 02:12:07;;;;;;;24.30;13.30;;;;;;;19.84;57.65;98358.46;106146;1276;96391;-67
2022/08/21 02:14:36;;;;;;;23.60;13.40;;;;;;;19.81;57.72;98361.63;105882;1277;107399;-65
2022/08/21 02:17:05;;;;;;;26.20;13.10;;;;;;;19.78;57.79;98354.41;105909;1276;97969;-66
2022/08/21 02:19:38;;;;;;;25.30;14.40;;;;;;;19.75;57.95;98355.88;105955;1276;97858;-66
2022/08/21 02:22:10;;;;;;;23.80;13.30;;;;;;;19.72;57.97;98354.60;105946;1276;112059;-66
2022/08/21 02:24:39;;;;;;;23.40;14.00;;;;;;;19.70;58.12;98353.02;105978;1276;95618;-66
2022/08/21 02:27:25;;;;;;;27.60;14.20;;;;;;;19.68;58.09;98350.50;105953;1276;108483;-66
2022/08/21 02:29:57;;;;;;;27.70;14.00;;;;;;;19.65;58.21;98349.57;105982;1276;97929;-67
2022/08/21 02:32:25;;;;;;;25.00;14.20;;;;;;;19.62;58.25;98348.25;105955;1276;95354;-67
2022/08/21 02:34:54;;;;;;;24.40;14.10;;;;;;;19.59;58.31;98349.16;106067;1276;112044;-68
2022/08/21 02:37:24;;;;;;;23.90;13.60;;;;;;;19.57;58.42;98344.60;106037;1275;95380;-68
2022/08/21 02:39:52;;;;;;;26.60;14.90;;;;;;;19.55;58.52;98343.75;106012;1276;107788;-66
2022/08/21 02:42:21;;;;;;;33.60;14.70;;;;;;;19.53;58.55;98339.91;106106;1276;98043;-64
2022/08/21 02:44:50;;;;;;;26.70;14.80;;;;;;;19.49;58.65;98336.01;106140;1276;97861;-66
2022/08/21 02:47:18;;;;;;;28.00;13.60;;;;;;;19.46;58.77;98336.00;106066;1274;112112;-66
2022/08/21 02:49:46;;;;;;;24.50;13.90;;;;;;;19.43;58.69;98332.93;106013;1274;96488;-67
2022/08/21 02:52:15;;;;;;;24.50;13.80;;;;;;;19.40;58.73;98339.98;105979;1274;108498;-67
2022/08/21 02:54:43;;;;;;;26.00;14.50;;;;;;;19.37;58.89;98344.09;106054;1276;97996;-67
2022/08/21 02:57:12;;;;;;;28.70;14.60;;;;;;;19.36;58.89;98342.63;106029;1276;98378;-68
2022/08/21 02:59:40;;;;;;;24.60;13.10;;;;;;;19.34;58.93;98344.48;105931;1275;112018;-68
2022/08/21 03:02:09;;;;;;;25.30;14.50;;;;;;;19.31;58.94;98348.45;105979;1275;98516;-68
2022/08/21 03:04:37;;;;;;;25.70;14.70;;;;;;;19.27;59.04;98352.34;105939;1276;109028;-68
2022/08/21 03:07:10;;;;;;;25.40;13.40;;;;;;;19.24;59.26;98349.42;105947;1276;97914;-68
2022/08/21 03:09:38;;;;;;;24.90;13.30;;;;;;;19.23;59.18;98350.15;105904;1276;97889;-68
2022/08/21 03:12:24;;;;;;;24.10;13.20;;;;;;;19.21;59.27;98350.54;105862;1276;112126;-67
2022/08/21 03:14:58;;;;;;;23.20;12.70;;;;;;;19.18;59.22;98348.73;105852;1276;97965;-69
2022/08/21 03:17:25;;;;;;;23.70;12.60;;;;;;;19.12;59.26;98344.71;105910;1276;108862;-70
2022/08/21 03:19:58;;;;;;;23.60;13.00;;;;;;;19.09;59.48;98344.63;105965;1276;95290;-70
2022/08/21 03:22:26;;;;;;;22.70;12.80;;;;;;;19.07;59.52;98338.77;105967;1276;96336;-69
2022/08/21 03:24:59;;;;;;;25.10;12.40;;;;;;;19.04;59.60;98334.88;105992;1276;110860;-67
2022/08/21 03:27:34;;;;;;;24.60;12.70;;;;;;;19.02;59.72;98332.80;105957;1276;95583;-66
2022/08/21 03:30:07;;;;;;;25.40;13.60;;;;;;;19.00;59.76;98329.27;106125;1276;107740;-72
2022/08/21 03:32:36;;;;;;;29.10;12.60;;;;;;;18.99;59.74;98327.92;105899;1275;97986;-70
2022/08/21 03:35:05;;;;;;;25.10;13.90;;;;;;;18.98;59.78;98327.55;105933;1276;97961;-71
2022/08/21 03:37:34;;;;;;;27.80;14.30;;;;;;;18.97;59.92;98327.20;105970;1276;111146;-70
2022/08/21 03:40:07;;;;;;;22.80;13.60;;;;;;;18.95;59.98;98327.48;105907;1276;95188;-73
2022/08/21 03:42:35;;;;;;;;;;;;;;;18.95;59.95;98330.63;106034;1276;107729;-74
2022/08/21 03:45:05;;;;;;;25.60;13.40;;;;;;;18.92;60.24;98329.89;105984;1276;97902;-73
2022/08/21 03:47:33;;;;;;;26.20;14.00;;;;;;;18.92;60.22;98328.86;106008;1276;97502;-73
2022/08/21 03:50:04;;;;;;;28.10;13.80;;;;;;;18.91;60.19;98328.59;105922;1276;111195;-74
2022/08/21 03:52:32;;;;;;;28.90;13.80;;;;;;;18.90;60.29;98326.84;104840;1276;1579526;-74
2022/08/21 03:54:59;;;;;;;27.10;14.10;;;;;;;18.89;60.41;98325.16;105999;1276;106570;-74
2022/08/21 03:57:27;;;;;;;26.00;13.20;;;;;;;18.89;60.42;98325.21;105984;1276;97969;-74
2022/08/21 03:59:55;;;;;;;25.10;13.90;;;;;;;18.90;60.39;98323.44;105998;1276;97886;-75
2022/08/21 04:02:23;;;;;;;25.70;13.40;;;;;;;18.89;60.57;98327.38;105986;1276;111411;-74
2022/08/21 04:04:51;;;;;;;24.00;13.30;;;;;;;18.88;60.63;98326.90;105948;1276;97972;-75
2022/08/21 04:07:19;;;;;;;22.00;13.00;;;;;;;18.88;60.65;98328.21;105869;1276;107733;-73
2022/08/21 04:09:47;;;;;;;22.40;13.50;;;;;;;18.87;60.71;98331.69;105867;1276;97867;-74
2022/08/21 04:12:15;;;;;;;23.70;13.80;;;;;;;18.87;60.78;98334.03;105882;1276;95411;-73
2022/08/21 04:14:42;;;;;;;25.70;14.00;;;;;;;18.87;60.84;98331.70;105962;1276;111378;-74
2022/08/21 04:17:10;;;;;;;25.30;14.00;;;;;;;18.87;60.89;98338.56;106015;1276;97898;-72
2022/08/21 04:19:38;;;;;;;21.10;13.10;;;;;;;18.87;60.91;98341.63;105969;1276;107760;-74
2022/08/21 04:22:06;;;;;;;22.00;13.00;;;;;;;18.87;60.95;98346.91;105992;1276;97868;-73
2022/08/21 04:24:34;;;;;;;22.60;12.20;;;;;;;18.88;60.97;98352.02;105998;1276;97930;-74
2022/08/21 04:27:02;;;;;;;21.80;12.90;;;;;;;18.89;61.09;98349.22;105913;1276;112118;-74
2022/08/21 04:29:30;;;;;;;24.30;12.80;;;;;;;18.91;61.29;98349.70;105935;1276;95703;-75
2022/08/21 04:32:01;;;;;;;21.90;13.40;;;;;;;18.93;61.18;98346.48;105898;1276;107760;-73
2022/08/21 04:34:29;;;;;;;23.10;13.40;;;;;;;18.95;61.30;98346.23;105917;1276;97995;-74
2022/08/21 04:36:57;;;;;;;24.60;13.80;;;;;;;18.98;61.35;98349.33;105908;1276;97980;-73
2022/08/21 04:39:25;;;;;;;28.30;13.80;;;;;;;19.00;61.39;98351.60;106048;1276;111407;-73
2022/08/21 04:41:56;;;;;;;21.80;13.00;;;;;;;19.01;61.42;98348.92;106112;1276;97904;-75
2022/08/21 04:44:24;;;;;;;26.00;13.70;;;;;;;19.03;61.54;98351.23;105919;1276;107825;-74
2022/08/21 04:46:52;;;;;;;23.00;13.10;;;;;;;19.05;61.46;98350.81;106067;1276;95919;-75
2022/08/21 04:49:20;;;;;;;24.80;14.20;;;;;;;19.08;61.58;98354.30;106048;1276;95282;-74
2022/08/21 04:51:49;;;;;;;21.60;13.50;;;;;;;19.10;61.63;98353.26;105996;1276;111177;-74
2022/08/21 04:54:22;;;;;;;24.10;12.80;;;;;;;19.15;61.68;98359.00;106003;1276;97873;-74
2022/08/21 04:56:54;;;;;;;22.60;13.00;;;;;;;19.17;61.75;98356.67;105990;1276;106736;-73
2022/08/21 04:59:31;;;;;;;23.90;13.00;;;;;;;19.21;61.85;98356.65;105870;1276;97854;-74
2022/08/21 05:02:01;;;;;;;22.50;12.60;;;;;;;19.25;61.84;98356.95;106005;1276;95247;-73
2022/08/21 05:04:33;;;;;;;22.10;12.50;;;;;;;19.29;62.01;98360.04;105965;1276;111163;-73
2022/08/21 05:07:05;;;;;;;26.70;14.10;;;;;;;19.34;61.99;98369.98;106046;1276;95641;-73
2022/08/21 05:09:36;;;;;;;20.90;11.50;;;;;;;19.38;61.98;98374.99;105926;1276;107790;-73
2022/08/21 05:12:05;;;;;;;21.10;12.50;;;;;;;19.40;62.07;98373.92;106002;1276;95203;-74
2022/08/21 05:14:33;;;;;;;23.50;12.10;;;;;;;19.44;62.04;98368.59;106023;1276;97816;-74
2022/08/21 05:17:01;;;;;;;25.20;11.80;;;;;;;19.49;62.09;98370.39;106072;1276;111094;-73
2022/08/21 05:19:29;;;;;;;22.90;12.40;;;;;;;19.54;62.09;98367.61;105994;1276;98501;-74
2022/08/21 05:21:57;;;;;;;20.50;10.80;;;;;;;19.59;62.17;98372.56;105940;1276;107765;-73
2022/08/21 05:24:25;;;;;;;21.60;11.20;;;;;;;19.65;62.26;98370.48;106030;1276;97947;-73
2022/08/21 05:26:54;;;;;;;22.40;10.40;;;;;;;19.70;62.21;98366.23;106047;1276;96598;-73
2022/08/21 05:29:22;;;;;;;28.30;10.60;;;;;;;19.75;62.34;98369.04;105986;1276;111361;-74
2022/08/21 05:31:51;;;;;;;19.50;10.10;;;;;;;19.81;62.32;98369.92;106038;1276;95328;-74
2022/08/21 05:34:23;;;;;;;18.70;10.00;;;;;;;19.86;62.41;98366.96;106008;1276;109573;-74
2022/08/21 05:36:51;;;;;;;20.10;9.60;;;;;;;19.90;62.40;98365.92;105944;1276;98007;-75
2022/08/21 05:39:19;;;;;;;20.30;9.50;;;;;;;19.96;62.42;98367.29;106001;1276;99427;-75
2022/08/21 05:41:47;;;;;;;21.20;10.00;;;;;;;20.00;62.48;98362.17;105990;1276;111189;-75
2022/08/21 05:44:15;;;;;;;21.50;9.80;;;;;;;20.05;62.41;98359.25;106012;1276;95458;-75
2022/08/21 05:46:44;;;;;;;20.00;9.60;;;;;;;20.10;62.50;98362.24;105972;1276;107739;-75
2022/08/21 05:49:12;;;;;;;23.40;10.60;;;;;;;20.16;62.41;98362.08;106083;1276;98068;-73
2022/08/21 05:51:42;;;;;;;18.10;9.60;;;;;;;20.21;62.50;98363.36;106011;1276;98214;-75
2022/08/21 05:54:10;;;;;;;17.10;9.50;;;;;;;20.27;62.52;98363.77;105911;1276;112550;-75
2022/08/21 05:56:39;;;;;;;19.80;10.40;;;;;;;20.32;62.58;98368.34;105961;1276;98019;-74
2022/08/21 05:59:07;;;;;;;19.10;9.50;;;;;;;20.38;62.54;98363.29;106048;1276;107692;-73
2022/08/21 06:01:35;;;;;;;18.90;9.60;;;;;;;20.44;62.61;98362.05;105973;1276;97797;-74
2022/08/21 06:04:04;;;;;;;19.40;9.60;;;;;;;20.50;62.47;98360.67;105972;1276;98613;-74
2022/08/21 06:06:34;;;;;;;20.00;9.30;;;;;;;20.57;62.62;98358.65;105965;1276;111202;-74
2022/08/21 06:09:04;;;;;;;21.10;9.10;;;;;;;20.64;62.72;98356.96;106022;1276;95852;-73
2022/08/21 06:11:32;;;;;;;19.60;9.70;;;;;;;20.71;62.66;98358.10;106056;1276;107684;-74
2022/08/21 06:14:00;;;;;;;20.60;9.30;;;;;;;20.78;62.73;98358.14;106053;1276;97910;-75
2022/08/21 06:16:29;;;;;;;16.90;8.40;;;;;;;20.85;62.55;98359.61;106114;1276;97985;-73
2022/08/21 06:18:57;;;;;;;19.00;9.20;;;;;;;20.92;62.72;98360.55;106011;1276;111453;-74
2022/08/21 06:21:30;;;;;;;21.20;9.80;;;;;;;20.99;62.66;98358.56;105873;1276;97915;-74
2022/08/21 06:23:58;;;;;;;19.20;8.70;;;;;;;21.06;62.54;98354.62;105842;1276;107766;-74
2022/08/21 06:26:27;;;;;;;19.50;9.30;;;;;;;21.14;62.74;98356.21;105903;1276;95935;-75
2022/08/21 06:28:58;;;;;;;19.90;8.90;;;;;;;21.20;62.49;98353.17;105779;1276;97891;-73
2022/08/21 06:31:28;;;;;;;21.30;9.50;;;;;;;21.24;62.79;98351.73;105956;1276;112172;-73
2022/08/21 06:33:57;;;;;;;21.90;9.20;;;;;;;21.30;62.58;98353.36;105972;1276;97998;-72
2022/08/21 06:36:25;;;;;;;18.70;8.80;;;;;;;21.36;62.71;98352.54;106031;1276;107785;-73
2022/08/21 06:38:54;;;;;;;26.20;10.30;;;;;;;21.46;62.68;98351.41;105978;1274;96524;-73
2022/08/21 06:41:25;;;;;;;20.20;9.50;;;;;;;21.54;62.62;98355.33;105908;1276;95361;-73
2022/08/21 06:43:57;;;;;;;21.40;9.30;;;;;;;21.63;62.75;98353.15;105959;1276;112764;-74
2022/08/21 06:46:28;;;;;;;27.20;8.90;;;;;;;21.71;62.50;98356.73;106169;1276;97894;-74
2022/08/21 06:48:58;;;;;;;18.50;8.70;;;;;;;21.80;62.67;98357.02;106098;1274;107893;-74
2022/08/21 06:51:27;;;;;;;21.10;9.10;;;;;;;21.90;62.53;98356.92;105921;1276;95201;-74
2022/08/21 06:53:57;;;;;;;21.70;9.50;;;;;;;21.99;62.61;98356.02;105966;1276;98577;-72
2022/08/21 06:56:26;;;;;;;24.10;10.10;;;;;;;22.07;62.55;98353.11;106004;1276;111466;-74
2022/08/21 06:58:54;;;;;;;18.60;8.60;;;;;;;22.15;62.71;98350.98;105918;1276;98005;-74
2022/08/21 07:01:26;;;;;;;19.80;9.30;;;;;;;22.25;62.53;98351.83;106045;1276;107733;-75
2022/08/21 07:03:55;;;;;;;30.00;11.20;;;;;;;22.34;62.67;98347.92;105980;1276;97865;-77
2022/08/21 07:06:24;;;;;;;25.70;9.80;;;;;;;22.43;62.77;98343.12;105879;1276;97963;-76
2022/08/21 07:08:52;;;;;;;20.20;9.10;;;;;;;22.52;62.44;98342.35;105890;1276;111419;-77
2022/08/21 07:11:26;;;;;;;18.30;8.20;;;;;;;22.62;62.66;98344.11;105968;1276;95288;-74
2022/08/21 07:13:56;;;;;;;21.20;8.90;;;;;;;22.73;62.59;98342.58;105973;1276;106935;-76
2022/08/21 07:16:24;;;;;;;17.10;8.90;;;;;;;22.95;62.42;98341.98;105893;1276;97917;-73
2022/08/21 07:18:52;;;;;;;20.70;8.60;;;;;;;23.91;61.35;98337.01;106054;1276;97781;-73
2022/08/21 07:21:20;;;;;;;17.90;8.00;;;;;;;25.15;60.90;98332.25;106079;1276;111387;-76
2022/08/21 07:23:54;;;;;;;17.20;8.30;;;;;;;26.47;60.58;98332.33;106059;1276;95188;-75
2022/08/21 07:26:23;;;;;;;21.10;8.60;;;;;;;27.76;60.41;98330.19;105973;1276;107718;-75
2022/08/21 07:28:54;;;;;;;18.40;7.70;;;;;;;29.04;60.21;98331.98;105952;1276;98107;-75
2022/08/21 07:31:24;;;;;;;23.90;7.70;;;;;;;30.23;59.81;98323.59;106071;1276;97902;-75
2022/08/21 07:33:53;;;;;;;15.40;7.20;;;;;;;31.32;59.51;98326.45;106105;1276;111326;-74
2022/08/21 07:36:23;;;;;;;19.00;7.60;;;;;;;32.38;59.02;98321.14;106046;1276;95949;-77
2022/08/21 07:38:51;;;;;;;15.30;6.60;;;;;;;33.48;58.69;98320.34;106080;1276;107850;-69
2022/08/21 07:41:28;;;;;;;15.90;6.90;;;;;;;34.41;58.22;98317.30;106125;1276;95348;-73
2022/08/21 07:43:59;;;;;;;13.00;6.50;;;;;;;35.30;57.82;98317.97;105990;1277;98020;-74
2022/08/21 07:46:27;;;;;;;14.10;6.40;;;;;;;36.15;57.50;98324.73;106044;1276;111855;-73
2022/08/21 07:48:56;;;;;;;13.60;6.40;;;;;;;36.96;56.89;98319.92;106015;1276;95864;-75
2022/08/21 07:51:29;;;;;;;18.60;7.30;;;;;;;37.69;56.10;98314.39;106004;1276;107780;-75
2022/08/21 07:53:59;;;;;;;15.00;6.50;;;;;;;38.33;55.48;98312.52;106115;1276;97991;-73
2022/08/21 07:56:31;;;;;;;16.00;6.70;;;;;;;38.95;54.80;98313.30;106055;1276;97757;-74
2022/08/21 07:58:59;;;;;;;13.40;6.70;;;;;;;39.56;54.22;98318.08;106023;1276;111449;-74
2022/08/21 08:01:27;;;;;;;14.80;6.80;;;;;;;40.14;53.66;98316.13;106049;1276;98347;-74
2022/08/21 08:03:56;;;;;;;16.20;6.30;;;;;;;40.68;52.93;98313.64;106068;1276;107822;-75
2022/08/21 08:06:25;;;;;;;12.30;6.00;;;;;;;41.15;52.00;98314.38;106067;1276;98025;-75
2022/08/21 08:08:53;;;;;;;14.90;6.10;;;;;;;41.53;51.12;98312.36;106026;1276;96980;-74
2022/08/21 08:11:22;;;;;;;15.20;6.00;;;;;;;41.87;50.43;98307.41;105924;1276;111463;-74
2022/08/21 08:13:52;;;;;;;17.70;6.20;;;;;;;42.22;49.82;98309.55;105958;1276;99565;-75
2022/08/21 08:16:20;;;;;;;12.10;5.90;;;;;;;42.42;48.88;98305.34;106075;1276;107831;-77
2022/08/21 08:18:49;;;;;;;12.00;6.10;;;;;;;42.54;48.03;98301.18;106047;1276;96438;-78
2022/08/21 08:21:20;;;;;;;12.90;5.60;;;;;;;42.54;47.33;98299.83;106003;1276;96298;-78
2022/08/21 08:23:49;;;;;;;12.60;5.40;;;;;;;42.59;47.11;98300.70;105933;1276;111443;-74
2022/08/21 08:26:17;;;;;;;14.30;6.20;;;;;;;42.50;45.93;98302.05;105936;1276;97734;-76
2022/08/21 08:28:47;;;;;;;14.80;6.00;;;;;;;42.61;45.44;98297.20;105977;1276;108331;-75
2022/08/21 08:31:15;;;;;;;15.00;5.60;;;;;;;42.70;44.53;98292.07;105979;1274;97986;-76
2022/08/21 08:33:43;;;;;;;15.80;6.50;;;;;;;42.70;44.27;98289.34;106028;1276;97865;-76
2022/08/21 08:36:14;;;;;;;13.80;5.70;;;;;;;42.58;43.45;98287.23;106119;1276;111372;-76
2022/08/21 08:38:43;;;;;;;15.60;6.00;;;;;;;42.54;42.67;98289.20;106044;1276;97867;-77
2022/08/21 08:41:14;;;;;;;17.40;5.70;;;;;;;42.58;42.27;98285.98;105950;1276;108388;-76
2022/08/21 08:43:52;;;;;;;16.50;5.80;;;;;;;42.63;41.65;98286.28;105891;1277;96338;-76
2022/08/21 08:46:46;;;;;;;19.40;6.30;;;;;;;42.60;40.94;98287.70;105952;1276;98016;-75
2022/08/21 08:49:35;;;;;;;13.50;5.90;;;;;;;42.59;40.50;98286.47;105978;1276;110844;-76
2022/08/21 08:52:28;;;;;;;16.20;6.10;;;;;;;42.67;39.92;98281.88;106102;1276;98488;-74
2022/08/21 08:55:20;;;;;;;16.90;7.10;;;;;;;42.74;39.39;98285.26;106080;1277;108004;-80
2022/08/21 08:57:57;;;;;;;17.10;6.80;;;;;;;42.62;38.95;98283.47;106002;1276;97987;-75
2022/08/21 09:00:25;;;;;;;18.40;7.30;;;;;;;42.48;38.72;98285.05;105990;1276;97050;-74
2022/08/21 09:02:58;;;;;;;15.50;6.30;;;;;;;42.26;38.46;98282.15;105945;1275;112184;-74
2022/08/21 09:05:46;;;;;;;13.30;6.40;;;;;;;41.77;37.96;98282.60;105928;1276;98362;-74
2022/08/21 09:08:37;;;;;;;15.20;6.70;;;;;;;41.15;37.56;98282.20;106017;1277;108507;-73
2022/08/21 09:11:24;;;;;;;22.10;7.70;;;;;;;40.56;37.23;98282.47;105928;1276;97872;-74
2022/08/21 09:14:14;;;;;;;21.40;7.50;;;;;;;40.21;36.93;98277.22;105980;1276;97870;-72
2022/08/21 09:16:50;;;;;;;17.80;6.20;;;;;;;39.86;36.65;98279.51;105952;1276;112511;-76
2022/08/21 09:19:35;;;;;;;14.20;6.60;;;;;;;39.72;36.41;98280.92;105959;1276;97961;-74
2022/08/21 09:22:15;;;;;;;17.40;7.20;;;;;;;39.60;36.06;98275.99;105959;1276;108766;-74
2022/08/21 09:25:11;;;;;;;14.60;6.50;;;;;;;39.46;35.80;98283.75;105988;1276;98559;-74
2022/08/21 09:27:39;;;;;;;20.90;6.80;;;;;;;39.45;35.72;98278.59;105968;1276;97878;-76
2022/08/21 09:30:10;;;;;;;17.80;6.60;;;;;;;39.50;35.54;98275.02;106107;1276;111448;-74
2022/08/21 09:32:39;;;;;;;16.40;6.50;;;;;;;39.55;35.57;98276.92;105962;1276;96996;-76
2022/08/21 09:35:13;;;;;;;24.40;8.30;;;;;;;39.66;35.29;98274.86;105884;1276;107767;-73
2022/08/21 09:38:00;;;;;;;16.50;7.00;;;;;;;39.73;35.26;98273.35;105984;1276;97971;-74
2022/08/21 09:40:40;;;;;;;18.90;6.60;;;;;;;39.74;35.02;98266.91;105921;1276;97969;-74
2022/08/21 09:43:11;;;;;;;17.30;6.80;;;;;;;39.64;34.79;98266.93;105939;1276;111432;-74
2022/08/21 09:45:44;;;;;;;14.50;6.40;;;;;;;39.34;34.47;98265.17;105964;1276;95717;-73
2022/08/21 09:48:14;;;;;;;15.10;6.20;;;;;;;39.23;34.65;98260.19;106067;1276;107743;-75
2022/08/21 09:50:43;;;;;;;15.50;6.20;;;;;;;39.10;34.53;98256.37;105923;1276;97869;-75
2022/08/21 09:53:26;;;;;;;14.20;6.10;;;;;;;38.83;34.25;98255.14;105939;1276;98092;-74
2022/08/21 09:58:52;;;;;;;56.60;16.30;;;;;;;37.99;34.40;98252.92;105766;1276;95952;-75
2022/08/21 10:01:23;;;;;;;35.00;11.80;;;;;;;37.62;34.22;98245.45;105830;1276;107826;-74
2022/08/21 10:04:07;;;;;;;27.60;9.70;;;;;;;37.24;34.08;98243.85;105867;1276;96628;-76
2022/08/21 10:06:36;;;;;;;25.70;8.90;;;;;;;36.75;33.94;98246.20;105978;1276;97868;-75
2022/08/21 10:09:03;;;;;;;23.60;8.60;;;;;;;36.36;34.08;98242.74;105936;1276;111455;-72
2022/08/21 10:11:34;;;;;;;14.00;5.90;;;;;;;36.05;34.01;98244.02;105924;1275;97860;-68
2022/08/21 10:14:14;;;;;;;18.20;6.30;;;;;;;35.85;34.04;98241.36;106362;1276;107663;-67
2022/08/21 10:17:14;;;;;;;17.20;5.60;;;;;;;35.60;34.08;98246.64;105933;1276;97992;-68
2022/08/21 10:20:11;;;;;;;15.40;6.00;;;;;;;35.39;34.15;98245.55;105967;1276;97888;-68
2022/08/21 10:23:05;;;;;;;15.80;5.60;;;;;;;35.13;33.97;98243.71;106112;1277;112052;-68
2022/08/21 10:25:40;;;;;;;13.80;5.60;;;;;;;34.87;34.11;98241.70;106161;1276;96359;-68
2022/08/21 10:28:44;;;;;;;16.00;6.10;;;;;;;34.56;34.03;98243.88;105978;1277;106765;-69
2022/08/21 10:31:39;;;;;;;13.60;6.40;;;;;;;34.34;34.28;98241.89;105961;1276;98014;-69
2022/08/21 10:34:16;;;;;;;16.30;5.90;;;;;;;34.21;34.19;98242.44;105976;1276;97743;-67
2022/08/21 10:36:55;;;;;;;14.10;6.10;;;;;;;34.11;34.39;98238.98;105967;1274;112001;-67
2022/08/21 10:39:34;;;;;;;17.10;5.60;;;;;;;34.08;34.39;98238.99;106086;1277;98489;-67
2022/08/21 10:42:26;;;;;;;18.80;5.70;;;;;;;33.94;34.09;98241.07;105974;1276;108640;-67
2022/08/21 10:45:18;;;;;;;;;;;;;;;33.88;34.40;98239.83;106094;1276;95286;-69
2022/08/21 10:47:55;;;;;;;16.60;6.50;;;;;;;33.83;34.73;98235.28;105995;1276;97926;-67
2022/08/21 10:50:41;;;;;;;15.60;5.50;;;;;;;33.81;34.55;98237.00;106042;1276;111879;-68
2022/08/21 10:53:31;;;;;;;12.80;5.70;;;;;;;33.71;34.57;98236.95;106038;1276;97847;-69
2022/08/21 10:56:23;;;;;;;13.20;5.30;;;;;;;33.55;34.76;98239.08;105945;1276;108463;-67
2022/08/21 10:59:19;;;;;;;15.10;5.40;;;;;;;33.44;34.49;98239.19;105840;1279;97950;-69
2022/08/21 11:02:00;;;;;;;15.30;5.50;;;;;;;33.40;34.81;98239.38;106056;1276;97993;-69
2022/08/21 11:04:43;;;;;;;12.50;5.50;;;;;;;33.36;34.52;98235.01;106046;1276;112082;-70
2022/08/21 11:07:25;;;;;;;13.10;5.40;;;;;;;33.34;34.72;98232.41;106038;1276;96165;-68
2022/08/21 11:10:05;;;;;;;17.40;5.70;;;;;;;33.34;34.67;98230.48;106050;1276;108443;-68
2022/08/21 11:12:43;;;;;;;18.30;5.70;;;;;;;33.28;34.59;98228.09;106041;1276;97893;-68
2022/08/21 11:15:47;;;;;;;12.40;5.30;;;;;;;33.20;34.34;98223.45;106005;1276;97868;-69
2022/08/21 11:18:32;;;;;;;10.00;5.20;;;;;;;33.10;34.69;98221.17;105851;1276;112513;-69
2022/08/21 11:21:16;;;;;;;15.80;5.50;;;;;;;33.04;34.95;98215.08;106006;1276;98355;-65
2022/08/21 11:23:57;;;;;;;13.30;5.50;;;;;;;33.00;34.54;98216.46;106060;1276;106773;-69
2022/08/21 11:26:35;;;;;;;13.50;5.20;;;;;;;32.98;34.79;98212.67;106003;1276;98064;-69
2022/08/21 11:29:16;;;;;;;17.30;6.30;;;;;;;32.97;34.89;98212.95;106003;1276;97971;-67
2022/08/21 11:32:22;;;;;;;14.90;5.50;;;;;;;32.90;34.86;98213.67;105953;1277;111183;-68
2022/08/21 11:35:22;;;;;;;15.30;5.90;;;;;;;32.80;34.93;98213.23;106031;1276;95727;-68
2022/08/21 11:37:55;;;;;;;15.50;5.90;;;;;;;32.79;34.74;98207.23;105920;1279;108434;-69
2022/08/21 11:40:56;;;;;;;12.50;5.50;;;;;;;32.80;34.96;98208.23;105895;1278;98014;-68